OIZJ  Jask  Airport

Jask, Iran

Add Bookmark
ICAO OIZJ
Type Airport
Status Operational
Latitude
25° 39' 12" N
25.653601
Longitude
57° 47' 57" E
57.799301
Local (GMT +4.5 ) UTC
Aug 24, 2016 05:59 am Aug 24, 2016 01:29
Sunrise-Sunset Local UTC
Begin Civil Twilight 05:51 am 01:21
Sunrise 06:15 am 01:45
Sunset 07:07 pm 14:37
End Civil Twilight 07:30 pm 15:00
VFR
VFR
MVFR
MVFR
IFR
IFR
LIFR
LIFR
Unknown
Unavailable

Current Weather

METAR Observed MVFR
OIZJ 240000Z 11004KT 7000 NSC 32/28 Q1000 Wed, Aug 24, 2016 @ 00:00 UTC
(1 Hour, 29 Minutes ago)
Marginal Visual Flight Rules
Wind Visibility Conditions
110° at 4 knots (7 kph) 7,001 m
  • No significant weather
Temperatures Readings Precipitation
Current Temp
32°C
90°F
Dewpoint
28°C
82°F
Heat Index
45°C
113°
Humidity 79%
Altimeter 29.53" Hg
Sea Level Pressure 1,000 mb
Field Elevation
4 m
13 ft
None Recorded
-
-

CheckWX.com is intended as a tool to help pilots better visualize weather data. It is not intended as a substitute for an official weather briefing obtained from a Flight Service Station. CheckWX.com does not meet the FAA requirements for an official pre-flight weather briefing. Therefore, it's important that pilots still call and obtain an official FSS pre-flight weather briefing.

© 2007-2016 CheckWX.com
01:29:40 UTC